createdAt,value
2023-05-07T00:08:21.873Z,6.00
2023-05-07T00:18:26.361Z,5.94
2023-05-07T00:28:28.247Z,5.91
2023-05-07T00:38:38.256Z,5.97
2023-05-07T00:48:40.371Z,5.88
2023-05-07T00:58:44.455Z,5.88
2023-05-07T01:08:47.674Z,5.82
2023-05-07T01:18:50.229Z,5.89
2023-05-07T01:28:52.157Z,5.85
2023-05-07T01:38:54.565Z,5.78
2023-05-07T01:48:56.925Z,5.80
2023-05-07T01:59:06.355Z,5.77
2023-05-07T02:09:12.988Z,5.71
2023-05-07T02:19:15.077Z,5.65
2023-05-07T02:29:16.934Z,5.66
2023-05-07T02:39:18.874Z,5.70
2023-05-07T02:49:21.024Z,5.65
2023-05-07T02:59:23.033Z,5.70
2023-05-07T03:09:33.853Z,5.73
2023-05-07T03:19:35.694Z,5.69
2023-05-07T03:29:43.683Z,5.68
2023-05-07T03:39:45.580Z,5.75
2023-05-07T03:49:47.551Z,5.70
2023-05-07T03:59:50.527Z,5.75
2023-05-07T04:09:52.665Z,5.77
2023-05-07T04:20:08.696Z,5.80
2023-05-07T04:30:36.600Z,5.82
2023-05-07T04:40:38.765Z,5.81
2023-05-07T04:50:40.799Z,5.77
2023-05-07T05:00:43.738Z,5.82
2023-05-07T05:10:49.856Z,5.93
2023-05-07T05:20:53.287Z,6.04
2023-05-07T05:30:55.336Z,6.29
2023-05-07T05:40:57.288Z,6.54
2023-05-07T05:51:02.383Z,6.95
2023-05-07T06:01:04.526Z,7.05
2023-05-07T06:11:07.467Z,6.96
2023-05-07T06:21:09.425Z,7.27
2023-05-07T06:31:14.917Z,7.69
2023-05-07T06:41:16.984Z,7.58
2023-05-07T06:51:19.012Z,8.03
2023-05-07T07:01:34.905Z,7.76
2023-05-07T07:11:48.144Z,7.66
2023-05-07T07:21:52.051Z,7.91
2023-05-07T07:31:54.257Z,8.00
2023-05-07T07:41:57.244Z,8.04
2023-05-07T07:52:00.701Z,8.40
2023-05-07T08:02:03.752Z,8.17
2023-05-07T08:12:09.211Z,8.43
2023-05-07T08:22:12.058Z,8.61
2023-05-07T08:32:29.112Z,8.69
2023-05-07T08:42:33.306Z,9.38
2023-05-07T08:52:35.449Z,9.37
2023-05-07T09:02:42.721Z,9.12
2023-05-07T09:12:52.250Z,9.09
2023-05-07T09:22:57.377Z,8.93
2023-05-07T09:33:00.650Z,8.98
2023-05-07T09:43:15.229Z,9.24
2023-05-07T09:53:24.087Z,9.30
2023-05-07T10:03:30.041Z,9.61
2023-05-07T10:13:39.406Z,9.73
2023-05-07T10:23:49.619Z,9.44
2023-05-07T10:33:54.388Z,9.66
2023-05-07T10:44:04.554Z,9.57
2023-05-07T10:54:16.792Z,9.57
2023-05-07T11:04:34.793Z,9.54
2023-05-07T11:15:02.124Z,10.09
2023-05-07T11:25:11.421Z,9.40
2023-05-07T11:35:14.191Z,9.60
2023-05-07T11:45:27.176Z,10.20
2023-05-07T11:55:29.115Z,9.87
2023-05-07T12:05:31.140Z,9.97
2023-05-07T12:15:36.209Z,10.35
2023-05-07T12:25:48.921Z,10.10
2023-05-07T12:35:51.264Z,10.46
2023-05-07T12:45:56.329Z,10.50
2023-05-07T12:56:17.039Z,10.64
2023-05-07T13:06:19.081Z,10.95
2023-05-07T13:16:26.090Z,10.74
2023-05-07T13:26:28.158Z,11.26
2023-05-07T13:36:36.732Z,10.87
2023-05-07T13:46:58.253Z,11.01
2023-05-07T13:57:09.272Z,11.17
2023-05-07T14:07:11.444Z,11.19
2023-05-07T14:17:14.035Z,11.59
2023-05-07T14:27:24.185Z,11.35
2023-05-07T14:37:29.487Z,11.59
2023-05-07T14:47:31.661Z,11.53
2023-05-07T14:57:36.400Z,11.22
2023-05-07T15:07:41.825Z,11.56
2023-05-07T15:17:46.103Z,11.59
2023-05-07T15:27:56.116Z,11.61
2023-05-07T15:38:09.973Z,11.47
2023-05-07T15:48:12.167Z,11.72
2023-05-07T15:58:14.137Z,11.66
2023-05-07T16:08:29.512Z,11.60
2023-05-07T16:18:37.688Z,11.67
2023-05-07T16:29:11.472Z,11.58
2023-05-07T16:39:13.606Z,11.42
2023-05-07T16:49:21.383Z,11.25
2023-05-07T16:59:25.604Z,11.13
2023-05-07T17:09:32.573Z,11.09
2023-05-07T17:19:40.085Z,10.81
2023-05-07T17:29:42.182Z,10.42
2023-05-07T17:39:44.691Z,10.19
2023-05-07T17:49:46.933Z,9.93
2023-05-07T17:59:51.241Z,9.72
2023-05-07T18:09:55.263Z,9.52
2023-05-07T18:19:57.346Z,9.05
2023-05-07T18:30:01.732Z,8.89
2023-05-07T18:40:29.423Z,8.76
2023-05-07T18:50:31.543Z,8.24
2023-05-07T19:00:33.580Z,7.60
2023-05-07T19:10:38.373Z,7.84
2023-05-07T19:21:06.747Z,7.60
2023-05-07T19:31:22.452Z,7.32
2023-05-07T19:41:25.157Z,7.09
2023-05-07T19:51:29.516Z,6.44
2023-05-07T20:01:34.287Z,6.04
2023-05-07T20:11:36.371Z,6.02
2023-05-07T20:21:38.308Z,5.48
2023-05-07T20:31:41.462Z,5.11
2023-05-07T20:41:46.741Z,5.07
2023-05-07T20:51:57.768Z,4.95
2023-05-07T21:02:02.894Z,4.80
2023-05-07T21:12:05.018Z,4.60
2023-05-07T21:22:11.427Z,4.33
2023-05-07T21:42:36.705Z,4.37
2023-05-07T21:52:55.293Z,3.99
2023-05-07T22:03:06.483Z,3.68
2023-05-07T22:13:09.581Z,3.39
2023-05-07T22:23:12.573Z,3.25
2023-05-07T22:33:14.517Z,3.19
2023-05-07T22:43:19.484Z,2.97
2023-05-07T22:53:21.744Z,2.99
2023-05-07T23:03:27.089Z,2.95
2023-05-07T23:13:29.053Z,3.10
2023-05-07T23:23:33.896Z,3.16
2023-05-07T23:33:36.511Z,2.70
2023-05-07T23:43:38.640Z,2.43
2023-05-07T23:53:40.847Z,2.49
